This is the latest recevied weather packets stored in our database for station/object OK2ZI. If no packets are shown the sender has not sent any weather packets the latest 10 day(s).
| Time | Temp. | Humidity | Pressure | Rain* | Wind** | Luminosity | Snow |
|---|---|---|---|---|---|---|---|
| 1778231287 | 13.33° C | 69% | 1014 hPa | 0 mm | - | - | - |
| 1778230566 | 14.44° C | 61% | 1014 hPa | 0 mm | - | - | - |
| 1778229486 | 12.78° C | 70% | 1014 hPa | 0 mm | - | - | - |
| 1778228527 | 13.33° C | 61% | 1014 hPa | 0 mm | - | - | - |
| 1778227758 | 13.33° C | 69% | 1015 hPa | 0 mm | - | - | - |
| 1778225886 | 11.67° C | 74% | 1014 hPa | 0 mm | - | - | - |
| 1778225287 | 11.11° C | 76% | 1014 hPa | 0 mm | - | - | - |
| 1778223727 | 11.11° C | 77% | 1014 hPa | 0 mm | - | - | - |
| 1778223619 | 11.11° C | 76% | 1014 hPa | 0 mm | - | - | - |
| 1778222887 | 12.22° C | 75% | 1014 hPa | 0 mm | - | - | - |
| 1778222411 | 12.22° C | 76% | 1014 hPa | 0 mm | - | - | - |
| 1778220727 | 11.67° C | 76% | 1014 hPa | 0 mm | - | - | - |
| 1778220608 | 11.11° C | 76% | 1014 hPa | 0 mm | - | - | - |
| 1778220247 | 11.11° C | 79% | 1014 hPa | 0 mm | - | - | - |
| 1778219526 | 10.56° C | 83% | 1014 hPa | 0 mm | - | - | - |
| 1778219166 | 10.56° C | 83% | 1014 hPa | 0 mm | - | - | - |
| 1778219046 | 10.56° C | 84% | 1014 hPa | 0 mm | - | - | - |
| 1778218812 | 10.56° C | 84% | 1014 hPa | 0 mm | - | - | - |
| 1778218087 | 10° C | 86% | 1014 hPa | 0 mm | - | - | - |
| 1778217247 | 9.44° C | 87% | 1014 hPa | 0 mm | - | - | - |
| 1778216417 | 8.89° C | 89% | 1014 hPa | 0 mm | - | - | - |
| 1778215566 | 7.78° C | 92% | 1013 hPa | 0 mm | - | - | - |
| 1778215211 | 7.22° C | 92% | 1013 hPa | 0 mm | - | - | - |
| 1778214727 | 6.67° C | 93% | 1013 hPa | 0 mm | - | - | - |
| 1778214486 | 6.67° C | 93% | 1014 hPa | 0 mm | - | - | - |
* Rain latest hour (hover to see other rain measurements)
** Current wind speed in m/s (hover to see current wind gust speed)